Latest Weather Observations for Lombadina

IDW60801

Issued at 11:35 pm WST Thursday 18 September 2014 (issued every 30 minutes, with the page automatically refreshed every 10 minutes)

About weather observations | Map of weather stations | Latest weather observations for WA | Other Formats
Station Details ID: 503016 Name: LOMBADINA AIRSTRIP Lat: -16.52 Lon: 122.92 Height: 42.0 m
Data from the previous 72 hours. | See also: Recent months for locations in Western Australia
Date/Time
WST
Temp
°C
App
Temp
°C
Dew
Point
Rel
Hum
%
Delta-T
°C
Wind Press
QNH
hPa
Press
MSL
hPa
Rain
since 9 am
mm
Dir
 
Spd
km/h
Gust
km/h
Spd
kts
Gust
kts
18/11:30pm 23.6 26.7 21.4 87 1.5 WSW 7 13 4 7 1014.7 1014.5 -
18/11:00pm 23.9 26.7 21.6 87 1.5 WSW 9 15 5 8 1015.1 1014.9 -
18/10:30pm 23.7 26.9 21.6 88 1.4 WSW 7 13 4 7 1015.4 1015.2 -
18/10:00pm 23.9 27.0 21.1 84 1.8 W 6 11 3 6 1015.7 1015.5 -
18/09:30pm 23.8 26.9 21.1 85 1.8 W 6 11 3 6 1015.9 1015.7 -
18/09:00pm 23.8 27.3 21.8 88 1.3 W 6 9 3 5 1016.0 1015.8 -
18/08:30pm 24.1 27.7 22.1 88 1.3 W 6 9 3 5 1016.0 1015.8 -
18/08:00pm 24.3 27.8 21.8 86 1.7 W 6 13 3 7 1015.8 1015.6 -
18/07:30pm 24.4 27.5 21.4 83 2.0 W 7 11 4 6 1015.4 1015.2 -
18/07:00pm 24.7 27.7 21.2 81 2.3 W 7 13 4 7 1015.1 1014.9 -
18/06:30pm 24.9 27.8 21.0 79 2.6 W 7 11 4 6 1014.7 1014.5 -
18/06:00pm 25.4 27.8 20.8 75 3.0 W 9 17 5 9 1014.3 1014.1 -
18/05:30pm 25.9 28.0 20.9 74 3.3 W 11 20 6 11 1013.7 1013.5 -
18/05:00pm 26.9 28.1 19.9 65 4.6 W 13 24 7 13 1013.2 1013.0 -
18/04:30pm 27.9 29.3 19.6 60 5.4 W 11 19 6 10 1012.9 1012.7 -
18/04:00pm 28.2 28.6 18.9 57 6.0 W 15 30 8 16 1012.9 1012.7 -
18/03:30pm 28.4 28.8 19.8 59 5.6 W 17 26 9 14 1012.8 1012.6 -
18/03:00pm 29.1 30.0 19.2 55 6.4 W 13 22 7 12 1012.9 1012.7 -
18/02:30pm 29.1 29.1 18.1 51 7.0 W 15 30 8 16 1013.0 1012.8 -
18/02:00pm 29.4 29.1 17.4 48 7.6 WNW 15 28 8 15 1013.1 1012.9 -
18/01:30pm 29.5 28.0 15.3 42 8.7 W 17 28 9 15 1013.6 1013.4 -
18/01:00pm 30.1 30.9 19.1 51 7.2 WNW 13 20 7 11 1014.0 1013.8 -
18/12:30pm 29.5 29.4 17.9 49 7.4 WNW 15 22 8 12 1014.4 1014.2 -
18/12:00pm 29.5 29.6 17.5 48 7.6 W 13 24 7 13 1014.9 1014.7 -
18/11:30am 29.0 29.9 19.3 55 6.3 WNW 13 20 7 11 1015.5 1015.3 0.0
18/11:00am 29.5 30.7 19.1 53 6.7 NW 11 20 6 11 1015.9 1015.7 0.0
18/10:00am 29.1 30.0 18.5 52 6.8 W 11 17 6 9 1016.7 1016.5 0.0
18/09:30am 29.1 28.7 15.2 42 8.5 W 11 19 6 10 1016.9 1016.7 0.0
18/09:00am 28.6 29.7 18.0 52 6.7 W 9 17 5 9 1017.0 1016.8 -
18/08:30am 27.0 29.9 21.1 70 3.9 W 7 13 4 7 1017.3 1017.1 -
18/08:00am 26.1 29.0 21.1 74 3.3 W 7 13 4 7 1017.3 1017.1 -
18/07:30am 25.4 29.0 22.3 83 2.1 W 7 13 4 7 1016.9 1016.7 -
18/07:00am 24.3 28.5 23.2 94 0.7 W 6 9 3 5 1016.5 1016.3 -
18/06:30am 22.2 26.0 21.6 96 0.4 W 4 6 2 3 1016.3 1016.1 -
18/06:00am 20.4 23.5 19.6 95 0.5 N 2 2 1 1 1016.0 1015.8 -
18/05:52am 20.3 23.9 19.7 96 0.4 CALM 0 2 0 1 1016.0 1015.8 -
18/05:30am 20.6 24.2 19.7 95 0.6 CALM 0 4 0 2 1015.8 1015.6 -
18/05:00am 21.0 24.2 19.8 93 0.8 SSE 2 2 1 1 1015.6 1015.4 -
18/04:49am 21.5 25.1 20.5 94 0.6 WSW 2 4 1 2 1015.4 1015.2 -
18/04:30am 22.7 26.5 21.7 94 0.7 W 4 13 2 7 1015.1 1014.9 -
18/04:00am 23.0 26.3 21.9 93 0.7 W 7 11 4 6 1014.6 1014.4 -
18/03:30am 23.0 26.6 22.1 95 0.6 W 6 13 3 7 1014.5 1014.3 -
18/03:00am 23.2 26.7 22.2 94 0.7 WNW 7 13 4 7 1014.2 1014.0 0.0
18/02:30am 23.2 26.3 22.1 93 0.7 W 9 19 5 10 1014.2 1014.0 -
18/02:00am 23.3 26.6 22.5 95 0.5 W 9 17 5 9 1013.9 1013.7 -
18/01:30am 23.4 26.8 22.7 96 0.5 W 9 15 5 8 1014.1 1013.9 -
18/01:00am 23.2 26.9 22.5 96 0.5 WNW 7 11 4 6 1014.2 1014.0 -
18/12:30am 23.0 26.6 22.3 96 0.5 W 7 13 4 7 1014.4 1014.2 -
18/12:00am 23.0 26.7 22.3 96 0.5 W 6 9 3 5 1014.6 1014.4 -
 
Date/Time
WST
Temp
°C
App
Temp
°C
Dew
Point
Rel
Hum
%
Delta-T
°C
Wind Press
QNH
hPa
Press
MSL
hPa
Rain
since 9 am
mm
Dir
 
Spd
km/h
Gust
km/h
Spd
kts
Gust
kts
17/11:30pm 23.2 27.1 22.5 96 0.5 W 6 11 3 6 1014.7 1014.5 -
17/11:00pm 23.3 27.3 22.7 96 0.4 W 6 13 3 7 1014.9 1014.7 -
17/10:30pm 23.2 27.1 22.5 96 0.5 W 6 9 3 5 1015.2 1015.0 -
17/10:00pm 23.1 26.9 22.4 96 0.5 W 6 9 3 5 1015.2 1015.0 -
17/09:30pm 23.1 26.8 22.2 95 0.6 W 6 11 3 6 1015.2 1015.0 -
17/09:00pm 23.2 27.0 22.4 95 0.5 W 6 9 3 5 1015.1 1014.9 0.0
17/08:30pm 22.9 26.5 22.0 95 0.6 W 6 9 3 5 1015.0 1014.8 -
17/08:00pm 23.0 26.6 22.1 95 0.6 WSW 6 9 3 5 1014.6 1014.4 -
17/07:30pm 23.2 27.2 22.0 93 0.8 W 4 7 2 4 1014.4 1014.2 -
17/07:00pm 23.5 27.2 22.2 92 0.9 W 6 9 3 5 1014.0 1013.8 -
17/06:30pm 23.9 27.6 22.2 90 1.1 W 6 11 3 6 1013.8 1013.6 -
17/06:00pm 24.5 28.0 22.2 87 1.5 W 7 13 4 7 1013.5 1013.3 -
17/05:30pm 25.2 28.3 22.1 83 2.1 W 9 15 5 8 1013.2 1013.0 -
17/05:00pm 26.1 28.7 21.9 77 2.8 WNW 11 19 6 10 1012.9 1012.7 -
17/04:30pm 26.6 28.9 22.0 76 3.1 WNW 13 20 7 11 1012.8 1012.6 -
17/04:00pm 27.2 29.3 21.7 72 3.7 WNW 13 20 7 11 1012.6 1012.4 -
17/03:30pm 26.9 29.1 21.1 70 3.8 WNW 11 22 6 12 1012.6 1012.4 -
17/03:00pm 26.8 28.4 21.4 72 3.6 WNW 15 22 8 12 1012.8 1012.6 -
17/02:30pm 27.6 29.2 21.4 69 4.1 NNW 15 24 8 13 1013.0 1012.8 -
17/02:00pm 27.7 29.6 22.1 71 3.8 NW 15 22 8 12 1013.0 1012.8 -
17/01:30pm 27.8 29.1 20.9 66 4.6 NW 15 26 8 14 1013.2 1013.0 -
17/01:00pm 27.6 28.8 20.7 66 4.6 WNW 15 28 8 15 1013.5 1013.3 -
17/12:30pm 27.5 29.2 21.6 70 3.9 NW 15 26 8 14 1013.8 1013.6 -
17/12:00pm 27.8 29.4 21.4 68 4.3 WNW 15 22 8 12 1014.2 1014.0 -
17/11:30am 28.3 29.8 20.6 63 5.1 NW 13 20 7 11 1014.7 1014.5 0.2
17/11:00am 28.9 31.1 21.9 66 4.7 NW 13 22 7 12 1015.0 1014.8 0.2
17/10:30am 27.7 29.2 20.5 65 4.7 WNW 13 20 7 11 1015.3 1015.1 0.2
17/10:00am 28.0 30.2 21.2 66 4.5 NW 11 19 6 10 1015.5 1015.3 0.0
17/09:30am 27.6 29.9 21.3 68 4.2 NW 11 19 6 10 1015.6 1015.4 0.0
17/09:00am 26.7 28.6 20.5 69 4.1 NW 11 19 6 10 1015.5 1015.3 0.2
17/08:30am 26.5 29.6 21.5 74 3.3 N 7 13 4 7 1015.4 1015.2 0.2
17/08:00am 25.5 28.5 22.0 81 2.3 NNW 9 17 5 9 1015.1 1014.9 0.2
17/07:30am 24.3 28.1 22.7 91 1.1 N 7 11 4 6 1014.7 1014.5 0.2
17/07:00am 23.2 27.1 22.5 96 0.5 N 6 11 3 6 1014.4 1014.2 0.2
17/06:30am 22.4 26.0 22.0 98 0.3 N 6 9 3 5 1014.0 1013.8 0.2
17/06:00am 21.8 25.0 21.2 96 0.4 N 6 7 3 4 1013.8 1013.6 0.2
17/05:30am 21.7 24.8 21.1 96 0.4 N 6 9 3 5 1013.4 1013.2 0.2
17/05:00am 21.6 24.7 21.1 97 0.3 NNE 6 7 3 4 1013.3 1013.1 0.2
17/04:31am 21.5 24.5 20.9 96 0.4 NNE 6 7 3 4 1012.8 1012.6 0.2
17/04:30am 21.5 24.5 20.9 96 0.4 NNE 6 7 3 4 1012.8 1012.6 0.2
17/04:04am 21.9 25.6 21.4 97 0.3 ENE 4 6 2 3 1012.6 1012.4 0.2
17/04:00am 22.0 25.7 21.4 96 0.4 ENE 4 6 2 3 1012.6 1012.4 0.2
17/03:30am 21.1 24.3 20.6 97 0.3 E 4 7 2 4 1012.2 1012.0 0.2
17/03:00am 20.4 23.5 20.2 99 0.1 E 4 9 2 5 1011.8 1011.5 0.2
17/02:30am 20.8 24.2 20.1 96 0.4 NE 2 4 1 2 1011.6 1011.3 0.2
17/02:00am 20.5 24.2 20.0 97 0.3 CALM 0 2 0 1 1011.7 1011.4 0.2
17/01:44am 21.3 24.9 20.5 95 0.5 WNW 2 6 1 3 1011.6 1011.3 0.2
17/01:39am 22.0 25.8 21.0 94 0.7 NNW 2 6 1 3 1011.6 1011.3 0.2
17/01:30am 21.5 25.2 20.8 96 0.5 NE 2 6 1 3 1011.6 1011.3 0.2
17/01:24am 22.1 26.1 21.3 95 0.5 NW 2 6 1 3 1011.7 1011.4 0.2
17/01:10am 22.2 26.2 21.4 95 0.5 W 2 6 1 3 1011.5 1011.2 0.2
17/01:00am 23.0 27.1 22.2 95 0.5 W 4 6 2 3 1011.5 1011.2 0.2
17/12:30am 23.0 26.8 22.4 96 0.4 W 6 11 3 6 1011.5 1011.2 0.0
17/12:00am 23.1 26.9 22.4 96 0.5 WNW 6 11 3 6 1011.6 1011.3 0.0
 
Date/Time
WST
Temp
°C
App
Temp
°C
Dew
Point
Rel
Hum
%
Delta-T
°C
Wind Press
QNH
hPa
Press
MSL
hPa
Rain
since 9 am
mm
Dir
 
Spd
km/h
Gust
km/h
Spd
kts
Gust
kts
16/11:30pm 23.3 27.0 22.6 96 0.5 W 7 15 4 8 1011.9 1011.6 0.0
16/11:00pm 23.2 26.8 22.4 95 0.5 W 7 11 4 6 1012.2 1012.0 0.0
16/10:30pm 23.3 27.3 22.7 96 0.4 W 6 11 3 6 1012.2 1012.0 0.0
16/10:00pm 23.3 27.2 22.5 95 0.5 WNW 6 13 3 7 1012.3 1012.1 0.0
16/09:30pm 23.1 26.7 22.4 96 0.5 W 7 15 4 8 1012.4 1012.2 0.0
16/09:00pm 22.9 26.5 22.0 95 0.6 NW 6 9 3 5 1012.6 1012.4 0.0
16/08:30pm 23.0 26.4 22.0 94 0.7 WSW 7 15 4 8 1012.3 1012.1 0.0
16/08:00pm 23.2 26.7 22.2 94 0.7 WSW 7 11 4 6 1012.3 1012.1 0.0
16/07:30pm 23.2 26.8 22.0 93 0.8 WSW 6 9 3 5 1012.0 1011.8 0.0
16/07:00pm 23.5 27.3 22.4 93 0.7 W 6 11 3 6 1011.6 1011.3 0.0
16/06:30pm 24.0 27.7 22.5 91 1.0 W 7 11 4 6 1011.3 1011.0 0.0
16/06:00pm 24.4 28.1 22.3 88 1.4 W 6 11 3 6 1010.8 1010.5 0.0
16/05:30pm 25.3 29.0 22.5 84 1.9 WNW 7 15 4 8 1010.7 1010.4 0.0
16/05:00pm 26.1 29.0 22.4 80 2.5 WNW 11 19 6 10 1010.5 1010.2 0.0
16/04:30pm 27.0 29.7 22.2 75 3.2 WNW 11 19 6 10 1010.4 1010.1 0.0
16/04:00pm 27.7 30.1 22.3 72 3.7 WNW 13 20 7 11 1010.3 1010.0 0.0
16/03:30pm 27.1 28.8 21.6 72 3.7 NW 15 20 8 11 1010.1 1009.8 0.0
16/03:00pm 27.4 28.6 20.6 66 4.5 NW 15 20 8 11 1010.2 1009.9 0.0
16/02:30pm 28.1 29.5 20.3 62 5.1 WNW 13 22 7 12 1010.3 1010.0 0.0
16/02:00pm 27.4 28.8 21.0 68 4.2 NW 15 22 8 12 1010.6 1010.3 0.0
16/01:30pm 27.8 29.3 21.2 67 4.4 WNW 15 22 8 12 1010.9 1010.6 0.0
16/01:00pm 27.4 28.6 21.5 70 3.9 NW 17 24 9 13 1011.4 1011.1 0.0
16/12:30pm 27.6 29.7 21.7 70 4.0 NW 13 20 7 11 1011.8 1011.5 0.0
16/12:00pm 27.7 29.6 21.4 68 4.2 NW 13 20 7 11 1012.3 1012.1 0.0
16/11:30am 28.2 30.4 21.9 68 4.2 WNW 13 20 7 11 1012.8 1012.6 0.0
16/11:00am 27.2 28.8 20.8 68 4.2 NW 13 20 7 11 1013.2 1013.0 0.0
16/10:30am 28.2 30.6 20.9 64 4.8 NW 9 15 5 8 1013.4 1013.2 0.0
16/10:00am 28.1 30.5 20.9 65 4.8 NW 9 17 5 9 1013.6 1013.4 0.0
16/09:30am 27.4 30.3 21.0 68 4.2 WNW 7 13 4 7 1013.8 1013.6 0.0
16/09:00am 26.6 29.1 21.0 71 3.7 WNW 9 15 5 8 1013.7 1013.5 0.4
16/08:30am 26.3 29.1 20.5 70 3.8 WNW 6 11 3 6 1013.9 1013.7 0.4
16/08:24am 26.3 29.7 21.0 72 3.5 NW 4 9 2 5 1013.9 1013.7 0.4
16/08:00am 25.7 29.4 22.3 81 2.3 NNE 6 7 3 4 1014.0 1013.8 0.4
16/07:58am 25.5 29.1 22.1 81 2.3 NNE 6 7 3 4 1014.0 1013.8 0.4
16/07:30am 24.9 30.0 24.1 95 0.5 NE 4 7 2 4 1013.8 1013.6 0.4
16/07:00am 23.5 28.2 22.7 95 0.5 E 2 6 1 3 1013.5 1013.3 0.4
16/06:58am 23.3 28.1 22.8 97 0.3 E 2 4 1 2 1013.5 1013.3 0.4
16/06:55am 23.1 27.7 22.5 96 0.4 E 2 4 1 2 1013.5 1013.3 0.4
16/06:30am 21.9 25.5 21.3 96 0.4 E 4 7 2 4 1013.2 1013.0 0.4
16/06:00am 21.0 23.8 20.4 96 0.4 E 6 7 3 4 1012.7 1012.5 0.4
16/05:30am 20.8 23.9 20.2 96 0.4 ESE 4 7 2 4 1012.5 1012.3 0.4
16/05:00am 21.1 24.6 20.4 96 0.5 N 2 4 1 2 1011.9 1011.6 0.4
16/04:34am 21.0 24.8 20.1 95 0.6 CALM 0 2 0 1 1011.7 1011.4 0.2
16/04:30am 21.8 26.1 21.2 96 0.4 CALM 0 4 0 2 1011.7 1011.4 0.2
16/04:29am 21.8 26.1 21.1 96 0.5 CALM 0 4 0 2 1011.7 1011.4 0.2
16/04:09am 21.6 24.9 20.7 95 0.6 W 4 7 2 4 1011.4 1011.1 0.2
16/04:06am 21.7 25.4 20.8 95 0.6 W 2 6 1 3 1011.5 1011.2 0.2
16/04:00am 22.3 26.5 21.7 96 0.4 WNW 2 6 1 3 1011.5 1011.2 0.2
16/03:45am 22.9 26.6 22.2 96 0.5 WNW 6 7 3 4 1011.3 1011.0 0.2
16/03:30am 22.9 26.6 22.2 96 0.5 NNW 6 11 3 6 1011.1 1010.8 0.2
16/03:00am 23.0 26.7 22.3 96 0.5 NNW 6 9 3 5 1011.1 1010.8 0.2
16/02:59am 23.0 26.8 22.4 96 0.4 NW 6 9 3 5 1011.1 1010.8 0.2
16/02:55am 23.1 27.0 22.5 96 0.4 WNW 6 9 3 5 1011.1 1010.8 0.2
16/02:39am 23.1 26.7 22.4 96 0.5 NW 7 9 4 5 1011.0 1010.7 0.2
16/02:30am 23.0 26.8 22.4 96 0.4 WNW 6 9 3 5 1010.9 1010.6 0.2
16/02:18am 23.0 26.6 22.3 96 0.5 NW 7 11 4 6 1010.8 1010.5 0.2
16/02:00am 23.3 27.0 22.5 95 0.5 WNW 7 13 4 7 1010.8 1010.5 0.2
16/01:46am 23.2 26.5 22.6 96 0.4 NNW 9 15 5 8 1010.9 1010.6 0.2
16/01:30am 22.9 26.5 22.4 97 0.3 WNW 7 11 4 6 1010.8 1010.5 0.2
16/01:11am 22.9 26.6 22.2 96 0.5 WNW 6 9 3 5 1011.0 1010.7 0.2
16/01:00am 23.0 26.6 22.3 96 0.5 WNW 7 9 4 5 1010.9 1010.6 0.2
16/12:51am 22.7 26.2 21.9 95 0.5 WNW 6 9 3 5 1011.0 1010.7 0.2
16/12:30am 22.9 26.6 22.2 96 0.5 W 6 9 3 5 1011.1 1010.8 0.2
16/12:00am 23.1 26.8 22.5 96 0.4 W 7 13 4 7 1011.3 1011.0 0.2

Other Formats:

Comma delimited format used in spreadsheet applications
http://www.bom.gov.au/fwo/IDW60801/IDW60801.99206.axf

JavaScript Object Notation format (JSON) in row-major order
http://www.bom.gov.au/fwo/IDW60801/IDW60801.99206.json